Station Historical Data
Daily Summary for October 5, 2017 Units:  English    Metric   Both
« Previous Day
Next Day »
Daily Weekly Monthly Yearly Custom
  High: Low: Average:
Temperature: 79.9 °F 54.7 °F 66.1 °F
Dew Point: 60.7 °F 51.5 °F 56.6 °F
Humidity: 90% 45% 73%
Wind Speed: 9.0mph 0.0mph 3.5mph
Wind Gust: 9.0mph - -
Wind- - East
Pressure: 30.32 in 30.14 in -
Precipitation: 0.00 in    
Historical Graphs
 
 
Tabular Data for October 5, 2017
Time Temperature Dew Point Pressure Wind Wind Speed Wind Gust Humidity Rainfall Rate (Hourly) solar Conditions
00:00 59.7 °F 55.2 °F 30.32 in Calm     85% 0.00 in WeatherDisplay:10.37 W/m2 CLR
00:05 59.5 °F 55.0 °F 30.32 in Calm     85% 0.00 in WeatherDisplay:10.37 W/m2 CLR
00:10 59.4 °F 54.9 °F 30.32 in Calm     85% 0.00 in WeatherDisplay:10.37 W/m2 CLR
00:15 59.3 °F 54.8 °F 30.32 in Calm     85% 0.00 in WeatherDisplay:10.37 W/m2 CLR
00:20 59.3 °F 55.1 °F 30.32 in Calm     86% 0.00 in WeatherDisplay:10.37 W/m2 CLR
00:25 59.2 °F 55.0 °F 30.32 in Calm     86% 0.00 in WeatherDisplay:10.37 W/m2 CLR
00:30 59.1 °F 54.9 °F 30.32 in Calm     86% 0.00 in WeatherDisplay:10.37 W/m2 CLR
00:40 58.9 °F 54.8 °F 30.32 in Calm     86% 0.00 in WeatherDisplay:10.37 W/m2 CLR
00:45 58.8 °F 54.7 °F 30.31 in Calm     86% 0.00 in WeatherDisplay:10.37 W/m2 CLR
00:50 58.8 °F 54.6 °F 30.31 in Calm     86% 0.00 in WeatherDisplay:10.37 W/m2 CLR
00:55 58.7 °F 54.5 °F 30.31 in Calm     86% 0.00 in WeatherDisplay:10.37 W/m2 CLR
01:00 58.6 °F 54.4 °F 30.31 in Calm     86% 0.00 in WeatherDisplay:10.37 W/m2 CLR
01:05 58.6 °F 54.4 °F 30.31 in Calm     86% 0.00 in WeatherDisplay:10.37 W/m2 CLR
01:10 58.5 °F 54.3 °F 30.30 in Calm     86% 0.00 in WeatherDisplay:10.37 W/m2 CLR
01:15 58.4 °F 54.2 °F 30.30 in Calm     86% 0.00 in WeatherDisplay:10.37 W/m2 CLR
01:25 58.2 °F 54.0 °F 30.30 in Calm     86% 0.00 in WeatherDisplay:10.37 W/m2 CLR
01:30 58.1 °F 53.9 °F 30.30 in Calm     86% 0.00 in WeatherDisplay:10.37 W/m2 CLR
01:35 58.1 °F 54.2 °F 30.30 in Calm     87% 0.00 in WeatherDisplay:10.37 W/m2 CLR
01:40 58.0 °F 54.2 °F 30.29 in Calm     87% 0.00 in WeatherDisplay:10.37 W/m2 CLR
01:45 58.0 °F 54.2 °F 30.29 in Calm     87% 0.00 in WeatherDisplay:10.37 W/m2 CLR
01:50 58.0 °F 54.1 °F 30.29 in Calm     87% 0.00 in WeatherDisplay:10.37 W/m2 CLR
01:55 57.9 °F 54.1 °F 30.29 in Calm     87% 0.00 in WeatherDisplay:10.37 W/m2 CLR
02:00 57.9 °F 54.1 °F 30.29 in Calm     87% 0.00 in WeatherDisplay:10.37 W/m2 CLR
02:10 57.9 °F 54.1 °F 30.29 in Calm     87% 0.00 in WeatherDisplay:10.37 W/m2 CLR
02:15 57.8 °F 54.0 °F 30.29 in Calm     87% 0.00 in WeatherDisplay:10.37 W/m2 FEW
02:20 57.6 °F 53.8 °F 30.29 in Calm     87% 0.00 in WeatherDisplay:10.37 W/m2 FEW
02:25 57.4 °F 53.6 °F 30.28 in Calm     87% 0.00 in WeatherDisplay:10.37 W/m2 FEW
02:30 57.3 °F 53.5 °F 30.28 in Calm     87% 0.00 in WeatherDisplay:10.37 W/m2 FEW
02:40 57.2 °F 53.7 °F 30.28 in Calm     88% 0.00 in WeatherDisplay:10.37 W/m2 FEW
02:45 57.1 °F 53.6 °F 30.27 in Calm     88% 0.00 in WeatherDisplay:10.37 W/m2 FEW
02:50 57.0 °F 53.5 °F 30.27 in Calm     88% 0.00 in WeatherDisplay:10.37 W/m2 FEW
02:55 56.9 °F 53.4 °F 30.27 in Calm     88% 0.00 in WeatherDisplay:10.37 W/m2 FEW
03:00 56.9 °F 53.4 °F 30.27 in Calm     88% 0.00 in WeatherDisplay:10.37 W/m2 FEW
03:05 56.9 °F 53.4 °F 30.27 in Calm     88% 0.00 in WeatherDisplay:10.37 W/m2 FEW
03:10 57.0 °F 53.4 °F 30.27 in Calm     88% 0.00 in WeatherDisplay:10.37 W/m2 FEW
03:15 57.0 °F 53.5 °F 30.27 in East 1.0 mph 1.0 mph 88% 0.00 in WeatherDisplay:10.37 W/m2 FEW
03:20 56.9 °F 53.4 °F 30.27 in ESE 1.0 mph 1.0 mph 88% 0.00 in WeatherDisplay:10.37 W/m2 FEW
03:25 56.9 °F 53.4 °F 30.27 in ESE 1.0 mph 1.0 mph 88% 0.00 in WeatherDisplay:10.37 W/m2 FEW
03:30 57.0 °F 53.5 °F 30.27 in ESE 1.0 mph 1.0 mph 88% 0.00 in WeatherDisplay:10.37 W/m2 FEW
03:40 56.7 °F 53.2 °F 30.27 in ESE 1.0 mph 1.0 mph 88% 0.00 in WeatherDisplay:10.37 W/m2 FEW
03:45 56.6 °F 53.1 °F 30.27 in ESE 1.0 mph 1.0 mph 88% 0.00 in WeatherDisplay:10.37 W/m2 FEW
03:50 56.5 °F 53.0 °F 30.27 in ESE 1.0 mph 1.0 mph 88% 0.00 in WeatherDisplay:10.37 W/m2 FEW
03:55 56.4 °F 52.9 °F 30.27 in ESE 1.0 mph 1.0 mph 88% 0.00 in WeatherDisplay:10.37 W/m2 FEW
04:00 56.3 °F 52.8 °F 30.27 in ESE 1.0 mph 1.0 mph 88% 0.00 in WeatherDisplay:10.37 W/m2 FEW
04:05 56.2 °F 53.0 °F 30.27 in ESE 1.0 mph 1.0 mph 89% 0.00 in WeatherDisplay:10.37 W/m2 FEW
04:10 56.1 °F 52.9 °F 30.27 in ESE 1.0 mph 1.0 mph 89% 0.00 in WeatherDisplay:10.37 W/m2 FEW
04:15 56.2 °F 53.0 °F 30.27 in ENE 3.0 mph 3.0 mph 89% 0.00 in WeatherDisplay:10.37 W/m2 FEW
04:20 56.2 °F 53.0 °F 30.27 in ENE 3.0 mph 3.0 mph 89% 0.00 in WeatherDisplay:10.37 W/m2 FEW
04:25 56.3 °F 53.1 °F 30.27 in ENE 3.0 mph 3.0 mph 89% 0.00 in WeatherDisplay:10.37 W/m2 FEW
04:30 56.3 °F 53.1 °F 30.27 in ENE 3.0 mph 3.0 mph 89% 0.00 in WeatherDisplay:10.37 W/m2 FEW
04:35 56.3 °F 53.1 °F 30.27 in ENE 3.0 mph 3.0 mph 89% 0.00 in WeatherDisplay:10.37 W/m2 FEW
04:40 56.3 °F 53.1 °F 30.27 in ENE 3.0 mph 3.0 mph 89% 0.00 in WeatherDisplay:10.37 W/m2 FEW
04:50 56.1 °F 52.6 °F 30.27 in ENE 3.0 mph 3.0 mph 88% 0.00 in WeatherDisplay:10.37 W/m2 FEW
04:55 56.0 °F 52.8 °F 30.27 in ENE 3.0 mph 3.0 mph 89% 0.00 in WeatherDisplay:10.37 W/m2 FEW
05:00 55.9 °F 52.7 °F 30.27 in ENE 3.0 mph 3.0 mph 89% 0.00 in WeatherDisplay:10.37 W/m2 FEW
05:05 55.9 °F 52.7 °F 30.27 in ENE 3.0 mph 3.0 mph 89% 0.00 in WeatherDisplay:10.37 W/m2 FEW
05:10 55.9 °F 52.7 °F 30.27 in ENE 3.0 mph 3.0 mph 89% 0.00 in WeatherDisplay:10.37 W/m2 FEW
05:15 55.9 °F 52.7 °F 30.27 in ENE 2.0 mph 3.0 mph 89% 0.00 in WeatherDisplay:10.37 W/m2 FEW
05:25 55.9 °F 52.7 °F 30.27 in East 2.0 mph 2.0 mph 89% 0.00 in WeatherDisplay:10.37 W/m2 FEW
05:30 56.1 °F 52.9 °F 30.27 in East 2.0 mph 2.0 mph 89% 0.00 in WeatherDisplay:10.37 W/m2 FEW
05:40 56.0 °F 52.5 °F 30.26 in East 2.0 mph 2.0 mph 88% 0.00 in WeatherDisplay:10.37 W/m2 FEW
05:45 55.9 °F 52.4 °F 30.26 in East 2.0 mph 2.0 mph 88% 0.00 in WeatherDisplay:10.37 W/m2 FEW
05:50 55.8 °F 52.3 °F 30.26 in East 2.0 mph 2.0 mph 88% 0.00 in WeatherDisplay:10.37 W/m2 FEW
05:55 55.6 °F 52.4 °F 30.27 in East 2.0 mph 2.0 mph 89% 0.00 in WeatherDisplay:10.37 W/m2 FEW
06:00 55.5 °F 52.3 °F 30.26 in East 2.0 mph 2.0 mph 89% 0.00 in WeatherDisplay:10.37 W/m2 FEW
06:05 55.4 °F 52.2 °F 30.26 in East 2.0 mph 2.0 mph 89% 0.00 in WeatherDisplay:10.37 W/m2 FEW
06:10 55.3 °F 52.1 °F 30.26 in East 2.0 mph 2.0 mph 89% 0.00 in WeatherDisplay:10.37 W/m2 FEW
06:20 55.1 °F 51.9 °F 30.26 in East 2.0 mph 2.0 mph 89% 0.00 in WeatherDisplay:10.37 W/m2 FEW
06:25 54.9 °F 51.7 °F 30.27 in East 2.0 mph 2.0 mph 89% 0.00 in WeatherDisplay:10.37 W/m2 FEW
06:30 54.9 °F 51.7 °F 30.27 in East 2.0 mph 2.0 mph 89% 0.00 in WeatherDisplay:10.37 W/m2 FEW
06:35 54.8 °F 51.9 °F 30.27 in East 2.0 mph 2.0 mph 90% 0.00 in WeatherDisplay:10.37 W/m2 FEW
06:40 54.9 °F 52.0 °F 30.27 in East 2.0 mph 2.0 mph 90% 0.00 in WeatherDisplay:10.37 W/m2 FEW
06:45 54.9 °F 52.0 °F 30.27 in East 2.0 mph 2.0 mph 90% 0.00 in WeatherDisplay:10.37 W/m2 FEW
06:55 54.8 °F 51.9 °F 30.27 in East 2.0 mph 2.0 mph 90% 0.00 in WeatherDisplay:10.37 W/m2 FEW
07:00 54.9 °F 52.0 °F 30.27 in East 2.0 mph 2.0 mph 90% 0.00 in WeatherDisplay:10.37 W/m2 FEW
07:05 55.0 °F 52.1 °F 30.27 in East 2.0 mph 2.0 mph 90% 0.00 in WeatherDisplay:10.37 W/m2 FEW
07:10 55.1 °F 52.2 °F 30.27 in East 2.0 mph 2.0 mph 90% 0.00 in WeatherDisplay:10.37 W/m2 FEW
07:15 55.1 °F 52.2 °F 30.27 in East 1.0 mph 2.0 mph 90% 0.00 in WeatherDisplay:10.37 W/m2 FEW
07:20 55.3 °F 52.1 °F 30.27 in East 1.0 mph 1.0 mph 89% 0.00 in WeatherDisplay:10.37 W/m2 FEW
07:25 55.3 °F 52.1 °F 30.28 in East 1.0 mph 1.0 mph 89% 0.00 in WeatherDisplay:10.37 W/m2 FEW
07:30 55.2 °F 52.0 °F 30.28 in East 1.0 mph 1.0 mph 89% 0.00 in WeatherDisplay:10.37 W/m2 FEW
07:50 54.8 °F 51.6 °F 30.28 in East 1.0 mph 1.0 mph 89% 0.00 in WeatherDisplay:10.37 W/m2 FEW
07:55 54.7 °F 51.5 °F 30.27 in East 1.0 mph 1.0 mph 89% 0.00 in WeatherDisplay:10.37 W/m2 FEW
08:00 54.7 °F 51.5 °F 30.27 in East 1.0 mph 1.0 mph 89% 0.00 in WeatherDisplay:10.37 W/m2 FEW
08:05 54.7 °F 51.8 °F 30.28 in East 1.0 mph 1.0 mph 90% 0.00 in WeatherDisplay:10.37 W/m2 FEW
08:10 54.7 °F 51.8 °F 30.28 in East 1.0 mph 1.0 mph 90% 0.00 in WeatherDisplay:10.37 W/m2 FEW
08:15 54.9 °F 52.0 °F 30.27 in East 3.0 mph 3.0 mph 90% 0.00 in WeatherDisplay:10.37 W/m2 CLR
08:20 55.2 °F 52.3 °F 30.27 in East 3.0 mph 3.0 mph 90% 0.00 in WeatherDisplay:10.37 W/m2 CLR
08:25 55.5 °F 52.6 °F 30.28 in East 3.0 mph 3.0 mph 90% 0.00 in WeatherDisplay:10.37 W/m2 CLR
08:30 55.9 °F 52.7 °F 30.28 in East 3.0 mph 3.0 mph 89% 0.00 in WeatherDisplay:10.37 W/m2 CLR
08:40 57.3 °F 53.5 °F 30.29 in East 3.0 mph 3.0 mph 87% 0.00 in WeatherDisplay:10.37 W/m2 CLR
08:45 57.8 °F 53.6 °F 30.29 in East 3.0 mph 3.0 mph 86% 0.00 in WeatherDisplay:10.37 W/m2 CLR
08:50 58.1 °F 53.9 °F 30.28 in East 3.0 mph 3.0 mph 86% 0.00 in WeatherDisplay:10.37 W/m2 CLR
08:55 58.4 °F 54.2 °F 30.29 in East 3.0 mph 3.0 mph 86% 0.00 in WeatherDisplay:10.37 W/m2 CLR
09:00 58.7 °F 54.2 °F 30.29 in East 3.0 mph 3.0 mph 85% 0.00 in WeatherDisplay:10.37 W/m2 CLR
09:05 59.3 °F 54.1 °F 30.29 in East 3.0 mph 3.0 mph 83% 0.00 in WeatherDisplay:10.37 W/m2 CLR
09:10 59.9 °F 54.4 °F 30.29 in East 3.0 mph 3.0 mph 82% 0.00 in WeatherDisplay:10.37 W/m2 CLR
09:20 61.3 °F 54.8 °F 30.29 in ESE 3.0 mph 3.0 mph 79% 0.00 in WeatherDisplay:10.37 W/m2 CLR
09:25 62.0 °F 54.7 °F 30.29 in ESE 3.0 mph 3.0 mph 77% 0.00 in WeatherDisplay:10.37 W/m2 CLR
09:30 62.6 °F 55.3 °F 30.29 in ESE 3.0 mph 3.0 mph 77% 0.00 in WeatherDisplay:10.37 W/m2 CLR
09:35 63.1 °F 55.1 °F 30.29 in ESE 3.0 mph 3.0 mph 75% 0.00 in WeatherDisplay:10.37 W/m2 CLR
09:40 63.6 °F 55.5 °F 30.29 in ESE 3.0 mph 3.0 mph 75% 0.00 in WeatherDisplay:10.37 W/m2 CLR
09:45 64.0 °F 55.6 °F 30.29 in ESE 3.0 mph 3.0 mph 74% 0.00 in WeatherDisplay:10.37 W/m2 CLR
09:50 64.6 °F 55.7 °F 30.29 in ESE 3.0 mph 3.0 mph 73% 0.00 in WeatherDisplay:10.37 W/m2 CLR
09:55 64.9 °F 56.1 °F 30.29 in ESE 3.0 mph 3.0 mph 73% 0.00 in WeatherDisplay:10.37 W/m2 CLR
10:00 65.3 °F 55.6 °F 30.29 in ESE 3.0 mph 3.0 mph 71% 0.00 in WeatherDisplay:10.37 W/m2 CLR
10:05 65.6 °F 56.3 °F 30.28 in ESE 3.0 mph 3.0 mph 72% 0.00 in WeatherDisplay:10.37 W/m2 CLR
10:10 66.0 °F 56.3 °F 30.28 in ESE 3.0 mph 3.0 mph 71% 0.00 in WeatherDisplay:10.37 W/m2 CLR
10:15 66.3 °F 57.0 °F 30.28 in ESE 3.0 mph 3.0 mph 72% 0.00 in WeatherDisplay:10.37 W/m2 CLR
10:20 66.7 °F 57.4 °F 30.28 in East 3.0 mph 3.0 mph 72% 0.00 in WeatherDisplay:10.37 W/m2 CLR
10:25 67.2 °F 57.4 °F 30.28 in East 3.0 mph 3.0 mph 71% 0.00 in WeatherDisplay:10.37 W/m2 CLR
10:30 67.6 °F 57.5 °F 30.28 in East 3.0 mph 3.0 mph 70% 0.00 in WeatherDisplay:10.37 W/m2 CLR
10:35 68.2 °F 58.0 °F 30.28 in East 3.0 mph 3.0 mph 70% 0.00 in WeatherDisplay:10.37 W/m2 CLR
10:40 68.8 °F 58.6 °F 30.28 in East 3.0 mph 3.0 mph 70% 0.00 in WeatherDisplay:10.37 W/m2 CLR
10:45 69.1 °F 58.5 °F 30.28 in East 3.0 mph 3.0 mph 69% 0.00 in WeatherDisplay:10.37 W/m2 CLR
10:50 69.7 °F 58.6 °F 30.28 in East 3.0 mph 3.0 mph 68% 0.00 in WeatherDisplay:10.37 W/m2 CLR
10:55 70.3 °F 59.2 °F 30.28 in East 3.0 mph 3.0 mph 68% 0.00 in WeatherDisplay:10.37 W/m2 CLR
11:00 70.9 °F 59.4 °F 30.28 in East 3.0 mph 3.0 mph 67% 0.00 in WeatherDisplay:10.37 W/m2 CLR
11:05 71.6 °F 59.7 °F 30.28 in East 3.0 mph 3.0 mph 66% 0.00 in WeatherDisplay:10.37 W/m2 CLR
11:10 72.5 °F 59.6 °F 30.28 in East 3.0 mph 3.0 mph 64% 0.00 in WeatherDisplay:10.37 W/m2 CLR
11:20 73.5 °F 59.6 °F 30.27 in ESE 6.0 mph 6.0 mph 62% 0.00 in WeatherDisplay:10.37 W/m2 CLR
11:25 74.1 °F 59.8 °F 30.27 in ESE 6.0 mph 6.0 mph 61% 0.00 in WeatherDisplay:10.37 W/m2 CLR
11:30 74.2 °F 60.3 °F 30.27 in ESE 6.0 mph 6.0 mph 62% 0.00 in WeatherDisplay:10.37 W/m2 CLR
11:40 75.3 °F 60.0 °F 30.27 in ESE 6.0 mph 6.0 mph 59% 0.00 in WeatherDisplay:10.37 W/m2 CLR
11:45 75.1 °F 60.3 °F 30.27 in ESE 6.0 mph 6.0 mph 60% 0.00 in WeatherDisplay:10.37 W/m2 CLR
11:55 75.3 °F 60.0 °F 30.26 in ESE 6.0 mph 6.0 mph 59% 0.00 in WeatherDisplay:10.37 W/m2 CLR
12:00 75.6 °F 59.8 °F 30.26 in ESE 6.0 mph 6.0 mph 58% 0.00 in WeatherDisplay:10.37 W/m2 CLR
12:10 76.3 °F 60.4 °F 30.26 in ESE 6.0 mph 6.0 mph 58% 0.00 in WeatherDisplay:10.37 W/m2 CLR
12:15 76.3 °F 59.9 °F 30.26 in East 6.0 mph 6.0 mph 57% 0.00 in WeatherDisplay:10.37 W/m2 FEW
12:25 75.8 °F 60.0 °F 30.26 in North 6.0 mph 6.0 mph 58% 0.00 in WeatherDisplay:10.37 W/m2 FEW
12:30 76.4 °F 60.0 °F 30.25 in West 6.0 mph 6.0 mph 57% 0.00 in WeatherDisplay:10.37 W/m2 FEW
12:35 76.2 °F 59.4 °F 30.25 in West 6.0 mph 6.0 mph 56% 0.00 in WeatherDisplay:10.37 W/m2 FEW
12:45 76.6 °F 60.7 °F 30.25 in NE 6.0 mph 6.0 mph 58% 0.00 in WeatherDisplay:10.37 W/m2 FEW
12:55 76.0 °F 59.1 °F 30.24 in North 6.0 mph 6.0 mph 56% 0.00 in WeatherDisplay:10.37 W/m2 FEW
13:00 75.8 °F 60.4 °F 30.24 in WNW 6.0 mph 6.0 mph 59% 0.00 in WeatherDisplay:10.37 W/m2 FEW
13:05 76.0 °F 60.2 °F 30.24 in WNW 6.0 mph 6.0 mph 58% 0.00 in WeatherDisplay:10.37 W/m2 FEW
13:10 76.1 °F 60.3 °F 30.23 in WNW 6.0 mph 6.0 mph 58% 0.00 in WeatherDisplay:10.37 W/m2 FEW
13:15 76.2 °F 60.3 °F 30.23 in NNE 8.0 mph 8.0 mph 58% 0.00 in WeatherDisplay:10.37 W/m2 FEW
13:20 76.5 °F 60.2 °F 30.23 in ENE 8.0 mph 8.0 mph 57% 0.00 in WeatherDisplay:10.37 W/m2 FEW
13:25 76.6 °F 60.2 °F 30.23 in ENE 8.0 mph 8.0 mph 57% 0.00 in WeatherDisplay:10.37 W/m2 FEW
13:30 76.7 °F 60.3 °F 30.22 in ENE 8.0 mph 8.0 mph 57% 0.00 in WeatherDisplay:10.37 W/m2 FEW
13:35 76.7 °F 58.8 °F 30.22 in ENE 8.0 mph 8.0 mph 54% 0.00 in WeatherDisplay:10.37 W/m2 FEW
13:40 77.0 °F 60.1 °F 30.22 in ENE 8.0 mph 8.0 mph 56% 0.00 in WeatherDisplay:10.37 W/m2 FEW
13:45 77.4 °F 59.5 °F 30.22 in ENE 8.0 mph 8.0 mph 54% 0.00 in WeatherDisplay:10.37 W/m2 FEW
13:50 78.0 °F 60.0 °F 30.22 in ENE 8.0 mph 8.0 mph 54% 0.00 in WeatherDisplay:10.37 W/m2 FEW
13:55 78.2 °F 59.1 °F 30.21 in ENE 8.0 mph 8.0 mph 52% 0.00 in WeatherDisplay:10.37 W/m2 FEW
14:00 78.3 °F 58.7 °F 30.20 in ENE 8.0 mph 8.0 mph 51% 0.00 in WeatherDisplay:10.37 W/m2 FEW
14:05 79.0 °F 59.4 °F 30.20 in ENE 8.0 mph 8.0 mph 51% 0.00 in WeatherDisplay:10.37 W/m2 FEW
14:10 79.1 °F 59.4 °F 30.20 in ENE 8.0 mph 8.0 mph 51% 0.00 in WeatherDisplay:10.37 W/m2 FEW
14:15 79.4 °F 58.0 °F 30.20 in East 9.0 mph 9.0 mph 48% 0.00 in WeatherDisplay:10.37 W/m2 FEW
14:20 79.4 °F 58.6 °F 30.20 in ESE 9.0 mph 9.0 mph 49% 0.00 in WeatherDisplay:10.37 W/m2 FEW
14:30 79.9 °F 59.0 °F 30.19 in ESE 9.0 mph 9.0 mph 49% 0.00 in WeatherDisplay:10.37 W/m2 FEW
14:35 79.7 °F 56.5 °F 30.19 in ESE 9.0 mph 9.0 mph 45% 0.00 in WeatherDisplay:10.37 W/m2 FEW
14:40 79.4 °F 56.8 °F 30.19 in ESE 9.0 mph 9.0 mph 46% 0.00 in WeatherDisplay:10.37 W/m2 FEW
14:45 79.5 °F 58.1 °F 30.18 in ESE 9.0 mph 9.0 mph 48% 0.00 in WeatherDisplay:10.37 W/m2 FEW
14:50 79.7 °F 57.7 °F 30.18 in ESE 9.0 mph 9.0 mph 47% 0.00 in WeatherDisplay:10.37 W/m2 FEW
14:55 79.6 °F 57.0 °F 30.18 in ESE 9.0 mph 9.0 mph 46% 0.00 in WeatherDisplay:10.37 W/m2 FEW
15:00 79.4 °F 59.1 °F 30.18 in ESE 9.0 mph 9.0 mph 50% 0.00 in WeatherDisplay:10.37 W/m2 FEW
15:05 79.6 °F 57.6 °F 30.18 in ESE 9.0 mph 9.0 mph 47% 0.00 in WeatherDisplay:10.37 W/m2 FEW
15:10 79.5 °F 56.9 °F 30.17 in ESE 9.0 mph 9.0 mph 46% 0.00 in WeatherDisplay:10.37 W/m2 FEW
15:15 79.2 °F 57.3 °F 30.17 in East 7.0 mph 9.0 mph 47% 0.00 in WeatherDisplay:10.37 W/m2 FEW
15:20 78.9 °F 56.9 °F 30.17 in ENE 7.0 mph 7.0 mph 47% 0.00 in WeatherDisplay:10.37 W/m2 FEW
15:25 78.9 °F 58.7 °F 30.17 in ENE 7.0 mph 7.0 mph 50% 0.00 in WeatherDisplay:10.37 W/m2 FEW
15:30 78.8 °F 58.0 °F 30.16 in ENE 7.0 mph 7.0 mph 49% 0.00 in WeatherDisplay:10.37 W/m2 FEW
15:35 78.8 °F 57.4 °F 30.16 in ENE 7.0 mph 7.0 mph 48% 0.00 in WeatherDisplay:10.37 W/m2 FEW
15:40 78.5 °F 57.8 °F 30.16 in ENE 7.0 mph 7.0 mph 49% 0.00 in WeatherDisplay:10.37 W/m2 FEW
15:45 78.4 °F 57.1 °F 30.16 in ENE 7.0 mph 7.0 mph 48% 0.00 in WeatherDisplay:10.37 W/m2 FEW
15:50 78.4 °F 58.2 °F 30.16 in ENE 7.0 mph 7.0 mph 50% 0.00 in WeatherDisplay:10.37 W/m2 FEW
16:00 78.5 °F 58.3 °F 30.16 in ENE 7.0 mph 7.0 mph 50% 0.00 in WeatherDisplay:10.37 W/m2 FEW
16:10 79.0 °F 58.8 °F 30.16 in ENE 7.0 mph 7.0 mph 50% 0.00 in WeatherDisplay:10.37 W/m2 FEW
16:15 79.6 °F 59.3 °F 30.16 in NE 6.0 mph 7.0 mph 50% 0.00 in WeatherDisplay:10.37 W/m2 SCT
16:20 79.2 °F 57.8 °F 30.16 in NNE 6.0 mph 6.0 mph 48% 0.00 in WeatherDisplay:10.37 W/m2 SCT
16:25 78.5 °F 57.2 °F 30.15 in NNE 6.0 mph 6.0 mph 48% 0.00 in WeatherDisplay:10.37 W/m2 SCT
16:30 78.0 °F 57.3 °F 30.15 in NNE 6.0 mph 6.0 mph 49% 0.00 in WeatherDisplay:10.37 W/m2 SCT
16:35 77.7 °F 57.6 °F 30.15 in NNE 6.0 mph 6.0 mph 50% 0.00 in WeatherDisplay:10.37 W/m2 SCT
16:40 77.5 °F 59.5 °F 30.15 in NNE 6.0 mph 6.0 mph 54% 0.00 in WeatherDisplay:10.37 W/m2 SCT
16:45 77.4 °F 58.4 °F 30.15 in NNW 6.0 mph 6.0 mph 52% 0.00 in WeatherDisplay:10.37 W/m2 CLR
16:50 77.7 °F 58.7 °F 30.15 in WNW 6.0 mph 6.0 mph 52% 0.00 in WeatherDisplay:10.37 W/m2 CLR
16:55 77.8 °F 57.1 °F 30.15 in NNW 6.0 mph 6.0 mph 49% 0.00 in WeatherDisplay:10.37 W/m2 SCT
17:00 77.7 °F 58.1 °F 30.15 in NNE 6.0 mph 6.0 mph 51% 0.00 in WeatherDisplay:10.37 W/m2 SCT
17:05 77.4 °F 58.4 °F 30.15 in NNE 6.0 mph 6.0 mph 52% 0.00 in WeatherDisplay:10.37 W/m2 SCT
17:10 77.3 °F 58.8 °F 30.14 in NNE 6.0 mph 6.0 mph 53% 0.00 in WeatherDisplay:10.37 W/m2 SCT
17:15 77.4 °F 59.0 °F 30.14 in ENE 7.0 mph 7.0 mph 53% 0.00 in WeatherDisplay:10.37 W/m2 BKN
17:20 77.6 °F 58.0 °F 30.14 in East 7.0 mph 7.0 mph 51% 0.00 in WeatherDisplay:10.37 W/m2 BKN
17:25 77.7 °F 59.2 °F 30.14 in East 7.0 mph 7.0 mph 53% 0.00 in WeatherDisplay:10.37 W/m2 BKN
17:30 77.6 °F 59.1 °F 30.14 in East 7.0 mph 7.0 mph 53% 0.00 in WeatherDisplay:10.37 W/m2 BKN
17:40 77.2 °F 58.7 °F 30.14 in East 7.0 mph 7.0 mph 53% 0.00 in WeatherDisplay:10.37 W/m2 BKN
17:45 76.9 °F 59.0 °F 30.14 in East 7.0 mph 7.0 mph 54% 0.00 in WeatherDisplay:10.37 W/m2 BKN
17:50 76.6 °F 59.2 °F 30.14 in East 7.0 mph 7.0 mph 55% 0.00 in WeatherDisplay:10.37 W/m2 BKN
17:55 76.0 °F 59.7 °F 30.14 in East 7.0 mph 7.0 mph 57% 0.00 in WeatherDisplay:10.37 W/m2 BKN
18:00 75.6 °F 59.3 °F 30.14 in East 7.0 mph 7.0 mph 57% 0.00 in WeatherDisplay:10.37 W/m2 BKN
18:05 75.3 °F 59.5 °F 30.14 in East 7.0 mph 7.0 mph 58% 0.00 in WeatherDisplay:10.37 W/m2 BKN
18:10 75.1 °F 59.3 °F 30.14 in East 7.0 mph 7.0 mph 58% 0.00 in WeatherDisplay:10.37 W/m2 BKN
18:15 74.8 °F 59.1 °F 30.14 in East 3.0 mph 7.0 mph 58% 0.00 in WeatherDisplay:10.37 W/m2 SCT
18:20 74.6 °F 59.8 °F 30.15 in East 3.0 mph 3.0 mph 60% 0.00 in WeatherDisplay:10.37 W/m2 SCT
18:25 74.2 °F 59.9 °F 30.14 in East 3.0 mph 3.0 mph 61% 0.00 in WeatherDisplay:10.37 W/m2 SCT
18:30 73.8 °F 59.5 °F 30.15 in East 3.0 mph 3.0 mph 61% 0.00 in WeatherDisplay:10.37 W/m2 SCT
18:35 73.4 °F 59.6 °F 30.15 in East 3.0 mph 3.0 mph 62% 0.00 in WeatherDisplay:10.37 W/m2 SCT
18:40 73.0 °F 59.7 °F 30.15 in East 3.0 mph 3.0 mph 63% 0.00 in WeatherDisplay:10.37 W/m2 SCT
18:45 72.7 °F 59.8 °F 30.15 in East 3.0 mph 3.0 mph 64% 0.00 in WeatherDisplay:10.37 W/m2 SCT
18:55 72.1 °F 59.6 °F 30.15 in East 3.0 mph 3.0 mph 65% 0.00 in WeatherDisplay:10.37 W/m2 SCT
19:00 71.8 °F 59.4 °F 30.15 in East 3.0 mph 3.0 mph 65% 0.00 in WeatherDisplay:10.37 W/m2 SCT
19:10 71.4 °F 59.5 °F 30.14 in East 3.0 mph 3.0 mph 66% 0.00 in WeatherDisplay:10.37 W/m2 SCT
19:15 71.2 °F 59.7 °F 30.14 in ENE 3.0 mph 3.0 mph 67% 0.00 in WeatherDisplay:10.37 W/m2 FEW
19:20 70.9 °F 59.8 °F 30.15 in ENE 3.0 mph 3.0 mph 68% 0.00 in WeatherDisplay:10.37 W/m2 FEW
19:25 70.5 °F 59.5 °F 30.15 in ENE 3.0 mph 3.0 mph 68% 0.00 in WeatherDisplay:10.37 W/m2 FEW
19:30 70.3 °F 59.3 °F 30.15 in ENE 3.0 mph 3.0 mph 68% 0.00 in WeatherDisplay:10.37 W/m2 FEW
19:35 70.2 °F 59.5 °F 30.15 in ENE 3.0 mph 3.0 mph 69% 0.00 in WeatherDisplay:10.37 W/m2 FEW
19:40 69.9 °F 59.7 °F 30.14 in ENE 3.0 mph 3.0 mph 70% 0.00 in WeatherDisplay:10.37 W/m2 FEW
19:45 69.6 °F 59.4 °F 30.15 in ENE 3.0 mph 3.0 mph 70% 0.00 in WeatherDisplay:10.37 W/m2 FEW
19:50 69.4 °F 59.2 °F 30.15 in ENE 3.0 mph 3.0 mph 70% 0.00 in WeatherDisplay:10.37 W/m2 FEW
19:55 69.2 °F 59.0 °F 30.15 in ENE 3.0 mph 3.0 mph 70% 0.00 in WeatherDisplay:10.37 W/m2 FEW
20:05 68.8 °F 59.0 °F 30.15 in ENE 3.0 mph 3.0 mph 71% 0.00 in WeatherDisplay:10.37 W/m2 FEW
20:10 68.6 °F 58.8 °F 30.15 in ENE 3.0 mph 3.0 mph 71% 0.00 in WeatherDisplay:10.37 W/m2 FEW
20:15 68.5 °F 59.1 °F 30.15 in ENE 3.0 mph 3.0 mph 72% 0.00 in WeatherDisplay:10.37 W/m2 SCT
20:20 68.3 °F 59.3 °F 30.15 in East 3.0 mph 3.0 mph 73% 0.00 in WeatherDisplay:10.37 W/m2 SCT
20:25 68.1 °F 59.5 °F 30.16 in East 3.0 mph 3.0 mph 74% 0.00 in WeatherDisplay:10.37 W/m2 SCT
20:30 67.8 °F 59.2 °F 30.16 in East 3.0 mph 3.0 mph 74% 0.00 in WeatherDisplay:10.37 W/m2 SCT
20:35 67.5 °F 58.9 °F 30.16 in East 3.0 mph 3.0 mph 74% 0.00 in WeatherDisplay:10.37 W/m2 SCT
20:40 67.3 °F 59.5 °F 30.16 in East 3.0 mph 3.0 mph 76% 0.00 in WeatherDisplay:10.37 W/m2 SCT
20:45 67.0 °F 59.2 °F 30.16 in East 3.0 mph 3.0 mph 76% 0.00 in WeatherDisplay:10.37 W/m2 SCT
20:50 66.8 °F 59.3 °F 30.16 in East 3.0 mph 3.0 mph 77% 0.00 in WeatherDisplay:10.37 W/m2 SCT
21:00 66.3 °F 59.6 °F 30.16 in East 3.0 mph 3.0 mph 79% 0.00 in WeatherDisplay:10.37 W/m2 SCT
21:05 66.3 °F 58.9 °F 30.16 in East 3.0 mph 3.0 mph 77% 0.00 in WeatherDisplay:10.37 W/m2 SCT
21:10 66.2 °F 59.1 °F 30.16 in East 3.0 mph 3.0 mph 78% 0.00 in WeatherDisplay:10.37 W/m2 SCT
21:15 66.1 °F 59.4 °F 30.16 in East 3.0 mph 3.0 mph 79% 0.00 in WeatherDisplay:10.37 W/m2 SCT
21:20 65.9 °F 59.2 °F 30.16 in East 3.0 mph 3.0 mph 79% 0.00 in WeatherDisplay:10.37 W/m2 SCT
21:25 65.6 °F 59.3 °F 30.16 in East 3.0 mph 3.0 mph 80% 0.00 in WeatherDisplay:10.37 W/m2 SCT
21:35 65.2 °F 59.2 °F 30.16 in East 3.0 mph 3.0 mph 81% 0.00 in WeatherDisplay:10.37 W/m2 SCT
21:40 65.0 °F 59.0 °F 30.16 in East 3.0 mph 3.0 mph 81% 0.00 in WeatherDisplay:10.37 W/m2 SCT
21:45 64.9 °F 58.9 °F 30.16 in East 3.0 mph 3.0 mph 81% 0.00 in WeatherDisplay:10.37 W/m2 SCT
21:50 64.7 °F 58.8 °F 30.16 in East 3.0 mph 3.0 mph 81% 0.00 in WeatherDisplay:10.37 W/m2 SCT
21:55 64.6 °F 59.0 °F 30.17 in East 3.0 mph 3.0 mph 82% 0.00 in WeatherDisplay:10.37 W/m2 SCT
22:00 64.5 °F 58.9 °F 30.16 in East 3.0 mph 3.0 mph 82% 0.00 in WeatherDisplay:10.37 W/m2 SCT
22:10 64.3 °F 58.7 °F 30.16 in East 3.0 mph 3.0 mph 82% 0.00 in WeatherDisplay:10.37 W/m2 SCT
22:15 64.1 °F 58.5 °F 30.16 in East 3.0 mph 3.0 mph 82% 0.00 in WeatherDisplay:10.37 W/m2 FEW
22:20 64.1 °F 58.5 °F 30.16 in East 3.0 mph 3.0 mph 82% 0.00 in WeatherDisplay:10.37 W/m2 FEW
22:25 64.0 °F 58.7 °F 30.16 in East 3.0 mph 3.0 mph 83% 0.00 in WeatherDisplay:10.37 W/m2 FEW
22:30 63.8 °F 58.5 °F 30.16 in East 3.0 mph 3.0 mph 83% 0.00 in WeatherDisplay:10.37 W/m2 FEW
22:40 63.5 °F 58.6 °F 30.16 in East 3.0 mph 3.0 mph 84% 0.00 in WeatherDisplay:10.37 W/m2 FEW
22:45 63.4 °F 58.5 °F 30.16 in East 3.0 mph 3.0 mph 84% 0.00 in WeatherDisplay:10.37 W/m2 FEW
22:50 63.3 °F 58.4 °F 30.16 in East 3.0 mph 3.0 mph 84% 0.00 in WeatherDisplay:10.37 W/m2 FEW
22:55 63.3 °F 58.4 °F 30.16 in East 3.0 mph 3.0 mph 84% 0.00 in WeatherDisplay:10.37 W/m2 FEW
23:00 63.2 °F 58.3 °F 30.16 in East 3.0 mph 3.0 mph 84% 0.00 in WeatherDisplay:10.37 W/m2 FEW
23:10 63.2 °F 58.6 °F 30.16 in East 3.0 mph 3.0 mph 85% 0.00 in WeatherDisplay:10.37 W/m2 FEW
23:20 63.3 °F 58.4 °F 30.16 in East 3.0 mph 3.0 mph 84% 0.00 in WeatherDisplay:10.37 W/m2 FEW
23:25 63.0 °F 58.1 °F 30.16 in East 3.0 mph 3.0 mph 84% 0.00 in WeatherDisplay:10.37 W/m2 FEW
23:30 62.9 °F 58.3 °F 30.16 in East 3.0 mph 3.0 mph 85% 0.00 in WeatherDisplay:10.37 W/m2 FEW
23:40 62.9 °F 58.3 °F 30.16 in East 3.0 mph 3.0 mph 85% 0.00 in WeatherDisplay:10.37 W/m2 FEW
23:45 63.2 °F 58.6 °F 30.16 in East 3.0 mph 3.0 mph 85% 0.00 in WeatherDisplay:10.37 W/m2 FEW
23:50 63.4 °F 58.8 °F 30.16 in East 3.0 mph 3.0 mph 85% 0.00 in WeatherDisplay:10.37 W/m2 FEW
23:55 63.5 °F 58.9 °F 30.16 in East 3.0 mph 3.0 mph 85% 0.00 in WeatherDisplay:10.37 W/m2 FEW
Piedmont Bend
Compliments of Weather Underground - 4 mb